createdAt,value
2022-09-10T00:01:45.606Z,2.50
2022-09-10T00:04:14.513Z,2.77
2022-09-10T00:06:42.594Z,2.83
2022-09-10T00:09:10.312Z,3.30
2022-09-10T00:11:40.707Z,2.93
2022-09-10T00:14:11.237Z,3.20
2022-09-10T00:16:38.200Z,3.20
2022-09-10T00:19:04.917Z,2.97
2022-09-10T00:21:32.094Z,3.70
2022-09-10T00:23:59.249Z,3.00
2022-09-10T00:26:28.151Z,2.87
2022-09-10T00:28:56.802Z,3.30
2022-09-10T00:31:24.235Z,2.80
2022-09-10T00:33:52.481Z,2.90
2022-09-10T00:36:23.137Z,2.10
2022-09-10T00:38:50.957Z,2.97
2022-09-10T00:41:20.533Z,3.10
2022-09-10T00:43:48.922Z,2.73
2022-09-10T00:46:26.460Z,2.50
2022-09-10T00:48:56.226Z,2.93
2022-09-10T00:51:24.298Z,2.63
2022-09-10T00:53:51.505Z,2.67
2022-09-10T00:56:18.306Z,2.20
2022-09-10T00:58:46.194Z,2.87
2022-09-10T01:01:13.531Z,2.43
2022-09-10T01:03:41.051Z,2.50
2022-09-10T01:06:07.932Z,2.50
2022-09-10T01:08:34.701Z,2.80
2022-09-10T01:11:56.927Z,2.33
2022-09-10T01:14:48.034Z,2.83
2022-09-10T01:17:52.085Z,2.77
2022-09-10T01:20:52.606Z,2.80
2022-09-10T01:23:46.037Z,2.20
2022-09-10T01:26:46.596Z,2.90
2022-09-10T01:29:37.171Z,2.57
2022-09-10T01:32:14.721Z,2.67
2022-09-10T01:34:55.120Z,2.60
2022-09-10T01:37:27.788Z,2.73
2022-09-10T01:39:56.013Z,2.23
2022-09-10T01:42:27.472Z,2.77
2022-09-10T01:44:59.949Z,2.60
2022-09-10T01:47:46.099Z,2.73
2022-09-10T01:50:30.237Z,2.80
2022-09-10T01:53:17.558Z,2.87
2022-09-10T01:55:47.897Z,3.10
2022-09-10T01:58:16.652Z,3.17
2022-09-10T02:00:56.006Z,2.93
2022-09-10T02:03:24.461Z,3.30
2022-09-10T02:05:54.120Z,3.17
2022-09-10T02:08:39.546Z,3.30
2022-09-10T02:11:14.338Z,3.00
2022-09-10T02:13:45.852Z,3.07
2022-09-10T02:16:39.366Z,3.20
2022-09-10T02:19:06.438Z,3.83
2022-09-10T02:21:34.109Z,3.20
2022-09-10T02:24:11.169Z,3.63
2022-09-10T02:26:40.510Z,3.20
2022-09-10T02:29:16.906Z,3.30
2022-09-10T02:31:44.879Z,3.70
2022-09-10T02:34:15.830Z,3.00
2022-09-10T02:36:47.033Z,2.97
2022-09-10T02:39:14.483Z,3.43
2022-09-10T02:41:42.633Z,3.43
2022-09-10T02:44:09.458Z,3.13
2022-09-10T02:46:38.253Z,2.87
2022-09-10T02:49:05.051Z,2.70
2022-09-10T02:51:37.049Z,2.60
2022-09-10T02:54:05.312Z,3.10
2022-09-10T02:56:32.443Z,2.70
2022-09-10T02:58:59.097Z,2.47
2022-09-10T03:01:27.977Z,2.70
2022-09-10T03:04:01.265Z,2.50
2022-09-10T03:06:30.442Z,2.60
2022-09-10T03:08:58.204Z,2.80
2022-09-10T03:11:27.785Z,2.57
2022-09-10T03:13:55.030Z,2.77
2022-09-10T03:16:24.359Z,2.53
2022-09-10T03:18:52.425Z,2.60
2022-09-10T03:21:25.110Z,3.30
2022-09-10T03:23:53.456Z,2.60
2022-09-10T03:26:25.446Z,2.57
2022-09-10T03:28:53.604Z,3.27
2022-09-10T03:31:22.572Z,2.93
2022-09-10T03:33:51.195Z,2.60
2022-09-10T03:36:19.086Z,3.23
2022-09-10T03:38:48.524Z,3.87
2022-09-10T03:41:15.455Z,3.77
2022-09-10T03:43:42.298Z,3.80
2022-09-10T03:46:12.368Z,4.67
2022-09-10T03:48:43.807Z,4.50
2022-09-10T03:51:11.125Z,5.00
2022-09-10T03:53:39.007Z,5.03
2022-09-10T03:56:08.620Z,5.37
2022-09-10T03:58:35.984Z,6.07
2022-09-10T04:01:04.090Z,5.07
2022-09-10T04:03:33.595Z,5.90
2022-09-10T04:06:00.255Z,5.03
2022-09-10T04:08:26.998Z,5.37
2022-09-10T04:10:57.108Z,6.03
2022-09-10T04:13:24.489Z,5.83
2022-09-10T04:15:51.196Z,5.40
2022-09-10T04:18:17.987Z,5.40
2022-09-10T04:20:48.097Z,5.73
2022-09-10T04:23:16.312Z,6.13
2022-09-10T04:25:43.898Z,5.67
2022-09-10T04:28:17.443Z,5.97
2022-09-10T04:30:47.166Z,6.33
2022-09-10T04:33:14.812Z,6.70
2022-09-10T04:35:42.787Z,6.43
2022-09-10T04:38:11.107Z,6.20
2022-09-10T04:40:39.367Z,6.73
2022-09-10T04:43:06.102Z,6.33
2022-09-10T04:45:40.233Z,6.97
2022-09-10T04:48:07.454Z,6.03
2022-09-10T04:50:35.938Z,6.67
2022-09-10T04:53:15.059Z,6.37
2022-09-10T04:55:44.602Z,6.53
2022-09-10T04:58:11.760Z,6.10
2022-09-10T05:00:40.195Z,6.80
2022-09-10T05:03:07.860Z,6.60
2022-09-10T05:05:46.044Z,7.00
2022-09-10T05:08:13.256Z,6.67
2022-09-10T05:10:43.520Z,7.53
2022-09-10T05:13:10.936Z,7.20
2022-09-10T05:15:41.553Z,7.30
2022-09-10T05:18:08.892Z,6.80
2022-09-10T05:20:38.087Z,6.93
2022-09-10T05:23:04.869Z,6.90
2022-09-10T05:25:32.127Z,7.43
2022-09-10T05:28:01.129Z,7.40
2022-09-10T05:30:32.252Z,8.37
2022-09-10T05:33:03.359Z,8.50
2022-09-10T05:35:33.519Z,9.03
2022-09-10T05:38:03.125Z,9.50
2022-09-10T05:40:35.468Z,9.70
2022-09-10T05:43:02.924Z,9.93
2022-09-10T05:45:30.372Z,10.50
2022-09-10T05:47:57.729Z,10.07
2022-09-10T05:50:24.496Z,9.90
2022-09-10T05:52:52.646Z,10.87
2022-09-10T05:55:19.392Z,10.87
2022-09-10T05:57:47.891Z,10.73
2022-09-10T06:00:17.418Z,11.63
2022-09-10T06:02:57.998Z,12.77
2022-09-10T06:05:35.339Z,12.50
2022-09-10T06:08:07.887Z,11.70
2022-09-10T06:10:37.302Z,12.57
2022-09-10T06:13:04.067Z,12.30
2022-09-10T06:15:30.761Z,13.67
2022-09-10T06:17:58.397Z,12.43
2022-09-10T06:20:26.018Z,12.10
2022-09-10T06:22:52.664Z,11.57
2022-09-10T06:25:19.348Z,12.17
2022-09-10T06:27:47.208Z,12.97
2022-09-10T06:30:15.570Z,13.13
2022-09-10T06:32:46.201Z,12.53
2022-09-10T06:35:13.624Z,12.63
2022-09-10T06:37:40.567Z,13.53
2022-09-10T06:40:09.955Z,11.27
2022-09-10T06:42:37.159Z,12.73
2022-09-10T06:45:17.951Z,13.53
2022-09-10T06:48:38.404Z,13.50
2022-09-10T06:51:09.804Z,13.07
2022-09-10T06:53:37.888Z,13.23
2022-09-10T06:56:11.018Z,12.93
2022-09-10T06:58:39.646Z,14.00
2022-09-10T07:01:11.876Z,13.37
2022-09-10T07:03:39.325Z,13.93
2022-09-10T07:06:09.821Z,13.80
2022-09-10T07:08:39.794Z,13.00
2022-09-10T07:11:14.335Z,13.80
2022-09-10T07:13:43.792Z,13.90
2022-09-10T07:16:11.577Z,13.07
2022-09-10T07:18:38.414Z,13.03
2022-09-10T07:21:12.789Z,13.07
2022-09-10T07:23:44.405Z,13.50
2022-09-10T07:26:14.194Z,13.77
2022-09-10T07:28:46.464Z,13.50
2022-09-10T07:31:21.275Z,12.87
2022-09-10T07:33:50.085Z,13.23
2022-09-10T07:36:18.448Z,13.10
2022-09-10T07:38:47.250Z,13.17
2022-09-10T07:41:15.442Z,13.70
2022-09-10T07:43:44.907Z,13.63
2022-09-10T07:46:20.939Z,13.33
2022-09-10T07:48:55.686Z,13.30
2022-09-10T07:51:23.665Z,14.23
2022-09-10T07:53:56.089Z,14.93
2022-09-10T07:56:23.641Z,13.37
2022-09-10T07:58:51.330Z,14.10
2022-09-10T08:01:21.799Z,13.87
2022-09-10T08:03:51.074Z,13.93
2022-09-10T08:06:18.389Z,12.93
2022-09-10T08:08:50.225Z,13.93
2022-09-10T08:11:19.317Z,14.23
2022-09-10T08:13:52.164Z,13.07
2022-09-10T08:16:23.961Z,12.17
2022-09-10T08:18:55.607Z,12.60
2022-09-10T08:21:25.988Z,11.80
2022-09-10T08:23:54.464Z,12.67
2022-09-10T08:26:23.729Z,11.63
2022-09-10T08:28:55.954Z,13.07
2022-09-10T08:31:24.923Z,11.77
2022-09-10T08:33:57.053Z,14.50
2022-09-10T08:36:26.280Z,12.30
2022-09-10T08:38:59.857Z,11.80
2022-09-10T08:41:43.387Z,12.30
2022-09-10T08:44:29.332Z,12.03
2022-09-10T08:47:17.829Z,12.17
2022-09-10T08:49:52.574Z,12.90
2022-09-10T08:52:38.366Z,11.73
2022-09-10T08:55:16.868Z,11.57
2022-09-10T08:58:03.478Z,10.63
2022-09-10T09:00:37.805Z,10.90
2022-09-10T09:03:32.783Z,11.17
2022-09-10T09:06:05.927Z,12.27
2022-09-10T09:08:48.360Z,11.13
2022-09-10T09:36:16.186Z,9.50
2022-09-10T09:38:49.220Z,18.77
2022-09-10T09:41:53.673Z,35.80
2022-09-10T09:44:23.235Z,13.10
2022-09-10T09:46:50.337Z,9.07
2022-09-10T09:49:17.419Z,8.67
2022-09-10T09:51:46.697Z,8.23
2022-09-10T09:54:56.861Z,8.17
2022-09-10T09:57:15.954Z,8.07
2022-09-10T09:59:42.783Z,7.80
2022-09-10T10:02:15.541Z,7.90
2022-09-10T10:04:59.119Z,8.33
2022-09-10T10:07:31.684Z,8.10
2022-09-10T10:10:01.378Z,7.53
2022-09-10T10:12:33.190Z,7.63
2022-09-10T10:15:03.048Z,7.20
2022-09-10T10:17:38.048Z,7.20
2022-09-10T10:20:16.284Z,6.73
2022-09-10T10:22:49.416Z,6.57
2022-09-10T10:25:40.515Z,7.10
2022-09-10T10:28:39.005Z,6.87
2022-09-10T10:31:07.731Z,6.37
2022-09-10T10:33:37.193Z,6.70
2022-09-10T10:36:19.838Z,5.80
2022-09-10T10:39:03.988Z,6.20
2022-09-10T10:42:05.677Z,6.73
2022-09-10T10:44:49.504Z,6.40
2022-09-10T10:47:36.639Z,5.80
2022-09-10T10:53:21.618Z,6.03
2022-09-10T10:56:14.804Z,6.00
2022-09-10T10:58:54.120Z,5.23
2022-09-10T11:01:23.823Z,4.83
2022-09-10T11:04:09.313Z,5.07
2022-09-10T11:06:40.670Z,4.90
2022-09-10T11:09:26.705Z,4.00
2022-09-10T11:12:03.503Z,3.73
2022-09-10T11:14:40.591Z,3.63
2022-09-10T11:17:17.956Z,3.47
2022-09-10T11:20:38.306Z,4.07
2022-09-10T11:23:15.076Z,3.80
2022-09-10T11:26:03.118Z,3.90
2022-09-10T11:28:47.843Z,3.33
2022-09-10T11:31:43.010Z,3.27
2022-09-10T11:34:40.013Z,4.20
2022-09-10T11:37:15.458Z,3.90
2022-09-10T11:39:47.570Z,4.00
2022-09-10T11:42:46.747Z,4.40
2022-09-10T11:45:22.280Z,3.97
2022-09-10T11:48:21.928Z,4.27
2022-09-10T11:50:57.184Z,3.80
2022-09-10T11:53:25.815Z,3.67
2022-09-10T11:56:11.869Z,4.10
2022-09-10T11:59:16.463Z,3.77
2022-09-10T12:02:17.947Z,3.80
2022-09-10T12:05:23.708Z,3.97
2022-09-10T12:08:06.484Z,4.07
2022-09-10T12:11:08.441Z,5.07
2022-09-10T12:13:42.825Z,4.60
2022-09-10T12:17:01.111Z,5.07
2022-09-10T12:19:47.776Z,4.70
2022-09-10T12:22:28.467Z,4.80
2022-09-10T12:25:00.706Z,5.30
2022-09-10T12:27:51.635Z,6.03
2022-09-10T12:30:27.586Z,5.97
2022-09-10T12:32:55.721Z,5.93
2022-09-10T12:35:32.037Z,6.43
2022-09-10T12:38:36.631Z,6.13
2022-09-10T12:41:04.546Z,6.10
2022-09-10T12:43:40.591Z,6.20
2022-09-10T12:46:08.063Z,6.33
2022-09-10T12:48:46.260Z,5.77
2022-09-10T12:51:48.729Z,6.07
2022-09-10T12:54:53.496Z,6.20
2022-09-10T12:57:30.187Z,5.87
2022-09-10T13:00:12.724Z,6.33
2022-09-10T13:02:51.597Z,5.57
2022-09-10T13:05:30.378Z,6.13
2022-09-10T13:08:25.762Z,5.17
2022-09-10T13:10:56.400Z,5.00
2022-09-10T13:13:33.256Z,4.70
2022-09-10T13:16:01.381Z,4.83
2022-09-10T13:18:30.711Z,4.90
2022-09-10T13:20:58.747Z,4.70
2022-09-10T13:23:47.849Z,5.00
2022-09-10T13:26:31.086Z,5.03
2022-09-10T13:29:00.393Z,4.57
2022-09-10T13:31:31.433Z,5.50
2022-09-10T13:34:01.005Z,4.83
2022-09-10T13:36:48.137Z,5.17
2022-09-10T13:39:54.783Z,4.77
2022-09-10T13:42:46.442Z,5.80
2022-09-10T13:45:19.306Z,5.03
2022-09-10T13:47:49.704Z,5.07
2022-09-10T13:50:25.325Z,4.53
2022-09-10T13:52:58.278Z,4.97
2022-09-10T13:55:32.617Z,4.47
2022-09-10T13:58:06.325Z,5.10
2022-09-10T14:00:50.574Z,4.37
2022-09-10T14:03:22.702Z,4.10
2022-09-10T14:05:53.584Z,4.40
2022-09-10T14:08:49.743Z,4.37
2022-09-10T14:11:21.311Z,4.30
2022-09-10T14:13:48.678Z,4.53
2022-09-10T14:16:19.999Z,4.50
2022-09-10T14:18:51.533Z,4.50
2022-09-10T14:21:19.689Z,4.50
2022-09-10T14:23:47.777Z,4.40
2022-09-10T14:26:19.928Z,3.97
2022-09-10T14:29:03.960Z,4.67
2022-09-10T14:31:36.993Z,4.77
2022-09-10T14:34:26.971Z,4.47
2022-09-10T14:36:53.880Z,4.43
2022-09-10T14:39:22.368Z,4.70
2022-09-10T14:41:49.976Z,4.20
2022-09-10T14:44:16.663Z,5.33
2022-09-10T14:46:54.565Z,4.10
2022-09-10T14:49:29.453Z,3.40
2022-09-10T14:51:58.533Z,3.70
2022-09-10T14:54:26.819Z,3.10
2022-09-10T14:56:56.342Z,3.57
2022-09-10T14:59:34.406Z,3.03
2022-09-10T15:02:02.375Z,2.70
2022-09-10T15:04:30.196Z,2.60
2022-09-10T15:07:00.679Z,3.10
2022-09-10T15:09:28.904Z,2.57
2022-09-10T15:12:05.144Z,2.80
2022-09-10T15:14:36.034Z,2.30
2022-09-10T15:17:02.846Z,3.17
2022-09-10T15:19:29.695Z,3.00
2022-09-10T15:21:56.949Z,2.30
2022-09-10T15:24:24.673Z,2.30
2022-09-10T15:26:51.721Z,2.70
2022-09-10T15:29:18.334Z,2.33
2022-09-10T15:31:45.168Z,2.87
2022-09-10T15:34:13.093Z,2.40
2022-09-10T15:36:40.765Z,2.27
2022-09-10T15:39:08.796Z,2.17
2022-09-10T15:41:35.566Z,2.30
2022-09-10T15:44:03.208Z,2.93
2022-09-10T15:46:30.380Z,2.33
2022-09-10T15:48:58.723Z,2.27
2022-09-10T15:51:25.505Z,2.80
2022-09-10T15:53:53.586Z,2.73
2022-09-10T15:56:21.536Z,2.50
2022-09-10T15:58:51.807Z,2.50
2022-09-10T16:01:24.506Z,2.30
2022-09-10T16:03:55.352Z,2.30
2022-09-10T16:06:24.070Z,2.50
2022-09-10T16:09:04.798Z,2.23
2022-09-10T16:11:34.268Z,2.30
2022-09-10T16:14:05.408Z,2.70
2022-09-10T16:16:34.087Z,2.47
2022-09-10T16:19:01.088Z,2.43
2022-09-10T16:21:31.131Z,2.10
2022-09-10T16:24:00.205Z,2.70
2022-09-10T16:47:14.848Z,3.30
2022-09-10T16:49:41.940Z,2.90
2022-09-10T16:52:08.660Z,3.10
2022-09-10T16:54:37.429Z,2.60
2022-09-10T16:57:04.973Z,2.23
2022-09-10T16:59:31.788Z,2.30
2022-09-10T17:02:00.546Z,2.63
2022-09-10T17:04:29.544Z,2.70
2022-09-10T17:07:04.629Z,2.57
2022-09-10T17:09:31.321Z,2.40
2022-09-10T17:11:58.839Z,2.70
2022-09-10T17:14:25.582Z,3.03
2022-09-10T17:16:53.322Z,2.33
2022-09-10T17:19:23.743Z,2.23
2022-09-10T17:21:53.356Z,2.50
2022-09-10T17:24:22.499Z,2.70
2022-09-10T17:26:49.579Z,2.77
2022-09-10T17:29:19.069Z,4.67
2022-09-10T17:31:48.907Z,11.33
2022-09-10T17:34:16.594Z,3.03
2022-09-10T17:36:46.058Z,3.50
2022-09-10T17:39:13.307Z,2.73
2022-09-10T17:41:40.381Z,2.87
2022-09-10T17:44:08.160Z,3.57
2022-09-10T17:46:36.189Z,3.40
2022-09-10T17:49:03.950Z,3.33
2022-09-10T17:51:36.214Z,3.47
2022-09-10T17:54:03.428Z,3.37
2022-09-10T17:56:30.994Z,3.30
2022-09-10T17:59:03.934Z,3.10
2022-09-10T18:01:33.032Z,3.67
2022-09-10T18:03:59.853Z,4.00
2022-09-10T18:06:29.212Z,3.57
2022-09-10T18:09:00.837Z,3.47
2022-09-10T18:11:30.625Z,5.50
2022-09-10T18:13:58.226Z,3.70
2022-09-10T18:16:27.925Z,4.50
2022-09-10T18:18:58.569Z,5.33
2022-09-10T18:21:31.469Z,4.03
2022-09-10T18:24:04.643Z,4.00
2022-09-10T18:26:33.456Z,5.00
2022-09-10T18:29:10.277Z,4.47
2022-09-10T18:31:42.922Z,5.40
2022-09-10T18:34:13.835Z,3.50
2022-09-10T18:36:41.344Z,3.10
2022-09-10T18:39:10.688Z,2.80
2022-09-10T18:41:38.860Z,3.03
2022-09-10T18:44:08.592Z,3.40
2022-09-10T18:46:35.795Z,3.70
2022-09-10T18:49:03.069Z,3.13
2022-09-10T18:51:30.450Z,4.00
2022-09-10T18:53:59.958Z,3.13
2022-09-10T18:56:31.965Z,3.40
2022-09-10T18:59:08.869Z,3.80
2022-09-10T19:01:38.064Z,2.87
2022-09-10T19:04:07.064Z,3.07
2022-09-10T19:06:37.228Z,3.00
2022-09-10T19:09:07.537Z,2.97
2022-09-10T19:11:40.298Z,3.90
2022-09-10T19:14:29.294Z,3.70
2022-09-10T19:16:57.018Z,3.57
2022-09-10T19:19:25.976Z,3.40
2022-09-10T19:21:55.858Z,3.87
2022-09-10T19:24:43.936Z,3.93
2022-09-10T19:27:13.350Z,3.93
2022-09-10T19:29:43.121Z,4.43
2022-09-10T19:32:11.412Z,5.47
2022-09-10T19:34:39.163Z,4.57
2022-09-10T19:37:07.198Z,4.50
2022-09-10T19:39:34.462Z,4.20
2022-09-10T19:42:01.456Z,4.77
2022-09-10T19:44:28.169Z,4.23
2022-09-10T19:46:55.420Z,4.30
2022-09-10T19:49:22.289Z,4.80
2022-09-10T19:51:49.314Z,5.17
2022-09-10T19:54:16.749Z,6.20
2022-09-10T19:56:43.950Z,5.40
2022-09-10T19:59:10.868Z,5.00
2022-09-10T20:01:42.015Z,5.60
2022-09-10T20:04:10.575Z,5.43
2022-09-10T20:06:38.195Z,6.67
2022-09-10T20:09:06.462Z,5.70
2022-09-10T20:11:35.371Z,6.10
2022-09-10T20:14:08.152Z,5.60
2022-09-10T20:16:43.649Z,5.57
2022-09-10T20:19:18.440Z,6.20
2022-09-10T20:21:50.007Z,8.20
2022-09-10T20:24:17.141Z,8.03
2022-09-10T20:26:46.561Z,7.50
2022-09-10T20:29:16.033Z,7.27
2022-09-10T20:31:43.595Z,7.37
2022-09-10T20:34:15.978Z,8.53
2022-09-10T20:36:43.674Z,7.03
2022-09-10T20:39:15.672Z,9.10
2022-09-10T20:41:43.484Z,9.83
2022-09-10T20:44:13.007Z,7.43
2022-09-10T20:46:41.474Z,7.20
2022-09-10T20:49:10.512Z,8.63
2022-09-10T20:51:38.803Z,8.07
2022-09-10T20:54:09.496Z,6.53
2022-09-10T20:56:39.278Z,7.13
2022-09-10T20:59:06.219Z,7.57
2022-09-10T21:01:33.253Z,7.67
2022-09-10T21:04:01.349Z,10.57
2022-09-10T21:06:31.345Z,6.90
2022-09-10T21:08:59.164Z,6.67
2022-09-10T21:11:29.304Z,5.70
2022-09-10T21:13:57.747Z,6.00
2022-09-10T21:16:29.533Z,5.67
2022-09-10T21:19:04.918Z,5.60
2022-09-10T21:21:34.190Z,5.50
2022-09-10T21:24:04.111Z,5.70
2022-09-10T21:26:33.480Z,5.43
2022-09-10T21:29:05.036Z,6.37
2022-09-10T21:31:32.212Z,6.43
2022-09-10T21:34:02.944Z,5.97
2022-09-10T21:36:31.558Z,6.07
2022-09-10T21:39:00.278Z,6.50
2022-09-10T21:41:32.004Z,5.73
2022-09-10T21:44:03.326Z,5.93
2022-09-10T21:46:30.655Z,5.90
2022-09-10T21:48:57.494Z,5.90
2022-09-10T21:51:24.445Z,5.50
2022-09-10T21:53:56.838Z,5.77
2022-09-10T21:56:25.944Z,5.30
2022-09-10T21:58:53.702Z,5.37
2022-09-10T22:01:22.686Z,5.33
2022-09-10T22:03:53.568Z,5.77
2022-09-10T22:06:25.279Z,6.50
2022-09-10T22:08:57.856Z,5.40
2022-09-10T22:11:27.236Z,5.20
2022-09-10T22:13:55.828Z,5.73
2022-09-10T22:16:23.064Z,6.77
2022-09-10T22:19:02.175Z,5.87
2022-09-10T22:21:29.322Z,5.70
2022-09-10T22:23:56.002Z,5.73
2022-09-10T22:26:24.770Z,6.50
2022-09-10T22:28:54.243Z,6.40
2022-09-10T22:31:23.216Z,6.07
2022-09-10T22:33:55.357Z,5.90
2022-09-10T22:36:24.389Z,6.20
2022-09-10T22:38:53.415Z,6.20
2022-09-10T22:41:21.491Z,6.40
2022-09-10T22:43:49.661Z,6.60
2022-09-10T22:46:16.846Z,6.10
2022-09-10T22:48:44.172Z,6.77
2022-09-10T22:51:16.062Z,6.50
2022-09-10T22:53:43.151Z,7.03
2022-09-10T22:56:11.182Z,6.60
2022-09-10T22:58:37.913Z,7.23
2022-09-10T23:01:06.581Z,7.33
2022-09-10T23:03:33.410Z,7.13
2022-09-10T23:06:05.745Z,6.93
2022-09-10T23:08:34.441Z,7.20
2022-09-10T23:11:28.507Z,7.70
2022-09-10T23:14:01.577Z,7.23
2022-09-10T23:16:30.978Z,7.50
2022-09-10T23:19:00.335Z,7.87
2022-09-10T23:21:28.844Z,8.63
2022-09-10T23:23:58.336Z,8.17
2022-09-10T23:26:26.051Z,8.30
2022-09-10T23:28:53.153Z,8.10
2022-09-10T23:31:22.446Z,8.73
2022-09-10T23:34:00.684Z,7.77
2022-09-10T23:36:33.013Z,8.57
2022-09-10T23:39:00.352Z,8.43
2022-09-10T23:41:27.615Z,8.37
2022-09-10T23:43:54.331Z,8.07
2022-09-10T23:46:21.554Z,8.80
2022-09-10T23:48:49.413Z,9.10
2022-09-10T23:51:19.243Z,9.10
2022-09-10T23:53:48.065Z,9.17
2022-09-10T23:56:20.062Z,9.23
2022-09-10T23:58:47.669Z,8.77
